Jingdezhen, China
Current Conditions -  °F | °C
As of 4:00 PM on Monday 20 Oct 2014 (Local Time) from ZSOF Reporting Station
Haze Haze  
Wind Chill: 79°   Ceiling: Unl
Heat Index: 81°   Visibility: 1.6mi
Dew Point: 64°   Wind: 4mph
Humidity: 61%   Direction: 110°ESE
Pressure: 29.85"   Gusts: NA
Location:  29.27°N, 117.18°E
Report Text: ZSOF 200800Z 11002MPS 2600 HZ NSC 26/18 Q1011 NOSIG
Loading
Personal Weather Stations






























Interactive Weather Map
Tropical Storm Tracking
New forecast layout! Learn more

10-Day Weather Forecast

Advertisements
Track Severe Weather on mobile